sensor_id;sensor_type;location;lat;lon;timestamp;temperature;humidity
14099;DHT22;7126;48.458;7.930;2023-11-21T00:02:17;10.90;99.90
14099;DHT22;7126;48.458;7.930;2023-11-21T00:04:43;10.90;99.90
14099;DHT22;7126;48.458;7.930;2023-11-21T00:07:08;10.90;99.90
14099;DHT22;7126;48.458;7.930;2023-11-21T00:09:34;10.80;99.90
14099;DHT22;7126;48.458;7.930;2023-11-21T00:12:00;10.90;99.90
14099;DHT22;7126;48.458;7.930;2023-11-21T00:14:25;10.90;99.90
14099;DHT22;7126;48.458;7.930;2023-11-21T00:16:51;10.90;99.90
14099;DHT22;7126;48.458;7.930;2023-11-21T00:19:16;11.00;99.90
14099;DHT22;7126;48.458;7.930;2023-11-21T00:21:42;11.00;99.90
14099;DHT22;7126;48.458;7.930;2023-11-21T00:24:10;11.00;99.90
14099;DHT22;7126;48.458;7.930;2023-11-21T00:26:35;11.00;99.90
14099;DHT22;7126;48.458;7.930;2023-11-21T00:29:02;11.00;99.90
14099;DHT22;7126;48.458;7.930;2023-11-21T00:31:28;11.00;99.90
14099;DHT22;7126;48.458;7.930;2023-11-21T00:33:53;11.00;99.90
14099;DHT22;7126;48.458;7.930;2023-11-21T00:36:20;11.00;99.90
14099;DHT22;7126;48.458;7.930;2023-11-21T00:38:46;11.00;99.90
14099;DHT22;7126;48.458;7.930;2023-11-21T00:41:13;11.00;99.90
14099;DHT22;7126;48.458;7.930;2023-11-21T00:43:39;11.00;99.90
14099;DHT22;7126;48.458;7.930;2023-11-21T00:46:05;11.00;99.90
14099;DHT22;7126;48.458;7.930;2023-11-21T00:48:34;11.10;99.90
14099;DHT22;7126;48.458;7.930;2023-11-21T00:51:00;11.00;99.90
14099;DHT22;7126;48.458;7.930;2023-11-21T00:53:26;11.00;99.90
14099;DHT22;7126;48.458;7.930;2023-11-21T00:55:51;11.00;99.90
14099;DHT22;7126;48.458;7.930;2023-11-21T00:58:24;11.00;99.90
14099;DHT22;7126;48.458;7.930;2023-11-21T01:00:49;11.00;99.90
14099;DHT22;7126;48.458;7.930;2023-11-21T01:03:15;11.00;99.90
14099;DHT22;7126;48.458;7.930;2023-11-21T01:05:40;11.00;99.90
14099;DHT22;7126;48.458;7.930;2023-11-21T01:08:06;11.00;99.90
14099;DHT22;7126;48.458;7.930;2023-11-21T01:10:31;10.90;99.90
14099;DHT22;7126;48.458;7.930;2023-11-21T01:12:57;10.90;99.90
14099;DHT22;7126;48.458;7.930;2023-11-21T01:15:23;10.90;99.90
14099;DHT22;7126;48.458;7.930;2023-11-21T01:17:51;10.90;99.90
14099;DHT22;7126;48.458;7.930;2023-11-21T01:20:17;10.90;99.90
14099;DHT22;7126;48.458;7.930;2023-11-21T01:22:43;10.90;99.90
14099;DHT22;7126;48.458;7.930;2023-11-21T01:25:09;10.90;99.90
14099;DHT22;7126;48.458;7.930;2023-11-21T01:27:35;10.90;99.90
14099;DHT22;7126;48.458;7.930;2023-11-21T01:30:01;10.90;99.90
14099;DHT22;7126;48.458;7.930;2023-11-21T01:32:27;10.90;99.90
14099;DHT22;7126;48.458;7.930;2023-11-21T01:34:54;10.90;99.90
14099;DHT22;7126;48.458;7.930;2023-11-21T01:37:20;10.90;99.90
14099;DHT22;7126;48.458;7.930;2023-11-21T01:39:47;10.90;99.90
14099;DHT22;7126;48.458;7.930;2023-11-21T01:42:13;10.80;99.90
14099;DHT22;7126;48.458;7.930;2023-11-21T01:44:39;10.80;99.90
14099;DHT22;7126;48.458;7.930;2023-11-21T01:47:08;10.70;99.90
14099;DHT22;7126;48.458;7.930;2023-11-21T01:49:35;10.70;99.90
14099;DHT22;7126;48.458;7.930;2023-11-21T01:52:01;10.70;99.90
14099;DHT22;7126;48.458;7.930;2023-11-21T01:54:27;10.70;99.90
14099;DHT22;7126;48.458;7.930;2023-11-21T01:56:58;10.70;99.90
14099;DHT22;7126;48.458;7.930;2023-11-21T01:59:35;10.70;99.90
14099;DHT22;7126;48.458;7.930;2023-11-21T02:02:05;10.70;99.90
14099;DHT22;7126;48.458;7.930;2023-11-21T02:04:35;10.70;99.90
14099;DHT22;7126;48.458;7.930;2023-11-21T02:07:04;10.70;99.90
14099;DHT22;7126;48.458;7.930;2023-11-21T02:09:33;10.70;99.90
14099;DHT22;7126;48.458;7.930;2023-11-21T02:12:00;10.70;99.90
14099;DHT22;7126;48.458;7.930;2023-11-21T02:14:26;10.70;99.90
14099;DHT22;7126;48.458;7.930;2023-11-21T02:16:53;10.70;99.90
14099;DHT22;7126;48.458;7.930;2023-11-21T02:19:22;10.80;99.90
14099;DHT22;7126;48.458;7.930;2023-11-21T02:21:51;10.80;99.90
14099;DHT22;7126;48.458;7.930;2023-11-21T02:24:21;10.80;99.90
14099;DHT22;7126;48.458;7.930;2023-11-21T02:26:48;10.80;99.90
14099;DHT22;7126;48.458;7.930;2023-11-21T02:29:14;10.80;99.90
14099;DHT22;7126;48.458;7.930;2023-11-21T02:31:42;10.80;99.90
14099;DHT22;7126;48.458;7.930;2023-11-21T02:34:16;10.80;99.90
14099;DHT22;7126;48.458;7.930;2023-11-21T02:36:46;10.80;99.90
14099;DHT22;7126;48.458;7.930;2023-11-21T02:39:13;10.80;99.90
14099;DHT22;7126;48.458;7.930;2023-11-21T02:41:38;10.80;99.90
14099;DHT22;7126;48.458;7.930;2023-11-21T02:44:05;10.80;99.90
14099;DHT22;7126;48.458;7.930;2023-11-21T02:46:35;10.90;99.90
14099;DHT22;7126;48.458;7.930;2023-11-21T02:49:02;10.90;99.90
14099;DHT22;7126;48.458;7.930;2023-11-21T02:51:28;10.80;99.90
14099;DHT22;7126;48.458;7.930;2023-11-21T02:53:54;10.80;99.90
14099;DHT22;7126;48.458;7.930;2023-11-21T02:56:20;10.80;99.90
14099;DHT22;7126;48.458;7.930;2023-11-21T02:58:45;10.80;99.90
14099;DHT22;7126;48.458;7.930;2023-11-21T03:01:11;10.80;99.90
14099;DHT22;7126;48.458;7.930;2023-11-21T03:03:40;10.70;99.90
14099;DHT22;7126;48.458;7.930;2023-11-21T03:06:06;10.70;99.90
14099;DHT22;7126;48.458;7.930;2023-11-21T03:08:32;10.70;99.90
14099;DHT22;7126;48.458;7.930;2023-11-21T03:10:58;10.70;99.90
14099;DHT22;7126;48.458;7.930;2023-11-21T03:13:23;10.70;99.90
14099;DHT22;7126;48.458;7.930;2023-11-21T03:15:48;10.70;99.90
14099;DHT22;7126;48.458;7.930;2023-11-21T03:18:14;10.80;99.90
14099;DHT22;7126;48.458;7.930;2023-11-21T03:20:39;10.80;99.90
14099;DHT22;7126;48.458;7.930;2023-11-21T03:23:08;10.80;99.90
14099;DHT22;7126;48.458;7.930;2023-11-21T03:25:33;10.80;99.90
14099;DHT22;7126;48.458;7.930;2023-11-21T03:27:59;10.80;99.90
14099;DHT22;7126;48.458;7.930;2023-11-21T03:30:24;10.80;99.90
14099;DHT22;7126;48.458;7.930;2023-11-21T03:32:51;10.80;99.90
14099;DHT22;7126;48.458;7.930;2023-11-21T03:35:16;10.80;99.90
14099;DHT22;7126;48.458;7.930;2023-11-21T03:37:43;10.80;99.90
14099;DHT22;7126;48.458;7.930;2023-11-21T03:40:09;10.80;99.90
14099;DHT22;7126;48.458;7.930;2023-11-21T03:42:35;10.80;99.90
14099;DHT22;7126;48.458;7.930;2023-11-21T03:45:00;10.80;99.90
14099;DHT22;7126;48.458;7.930;2023-11-21T03:47:27;10.70;99.90
14099;DHT22;7126;48.458;7.930;2023-11-21T03:49:53;10.70;99.90
14099;DHT22;7126;48.458;7.930;2023-11-21T03:52:19;10.70;99.90
14099;DHT22;7126;48.458;7.930;2023-11-21T03:54:44;10.70;99.90
14099;DHT22;7126;48.458;7.930;2023-11-21T03:57:10;10.60;99.90
14099;DHT22;7126;48.458;7.930;2023-11-21T03:59:36;10.60;99.90
14099;DHT22;7126;48.458;7.930;2023-11-21T04:02:01;10.60;99.90
14099;DHT22;7126;48.458;7.930;2023-11-21T04:04:27;10.50;99.90
14099;DHT22;7126;48.458;7.930;2023-11-21T04:06:53;10.60;99.90
14099;DHT22;7126;48.458;7.930;2023-11-21T04:09:19;10.60;99.90
14099;DHT22;7126;48.458;7.930;2023-11-21T04:11:44;10.50;99.90
14099;DHT22;7126;48.458;7.930;2023-11-21T04:14:11;10.50;99.90
14099;DHT22;7126;48.458;7.930;2023-11-21T04:16:37;10.50;99.90
14099;DHT22;7126;48.458;7.930;2023-11-21T04:19:03;10.50;99.90
14099;DHT22;7126;48.458;7.930;2023-11-21T04:21:28;10.50;99.90
14099;DHT22;7126;48.458;7.930;2023-11-21T04:23:54;10.50;99.90
14099;DHT22;7126;48.458;7.930;2023-11-21T04:26:19;10.50;99.90
14099;DHT22;7126;48.458;7.930;2023-11-21T04:28:44;10.60;99.90
14099;DHT22;7126;48.458;7.930;2023-11-21T04:31:10;10.60;99.90
14099;DHT22;7126;48.458;7.930;2023-11-21T04:33:35;10.60;99.90
14099;DHT22;7126;48.458;7.930;2023-11-21T04:36:01;10.60;99.90
14099;DHT22;7126;48.458;7.930;2023-11-21T04:38:27;10.60;99.90
14099;DHT22;7126;48.458;7.930;2023-11-21T04:40:52;10.60;99.90
14099;DHT22;7126;48.458;7.930;2023-11-21T04:43:18;10.60;99.90
14099;DHT22;7126;48.458;7.930;2023-11-21T04:45:43;10.60;99.90
14099;DHT22;7126;48.458;7.930;2023-11-21T04:48:09;10.60;99.90
14099;DHT22;7126;48.458;7.930;2023-11-21T04:50:35;10.50;99.90
14099;DHT22;7126;48.458;7.930;2023-11-21T04:53:01;10.50;99.90
14099;DHT22;7126;48.458;7.930;2023-11-21T04:55:26;10.40;99.90
14099;DHT22;7126;48.458;7.930;2023-11-21T04:57:53;10.40;99.90
14099;DHT22;7126;48.458;7.930;2023-11-21T05:00:19;10.40;99.90
14099;DHT22;7126;48.458;7.930;2023-11-21T05:02:46;10.30;99.90
14099;DHT22;7126;48.458;7.930;2023-11-21T05:05:12;10.40;99.90
14099;DHT22;7126;48.458;7.930;2023-11-21T05:07:41;10.40;99.90
14099;DHT22;7126;48.458;7.930;2023-11-21T05:10:08;10.50;99.90
14099;DHT22;7126;48.458;7.930;2023-11-21T05:12:37;10.50;99.90
14099;DHT22;7126;48.458;7.930;2023-11-21T05:15:05;10.40;99.90
14099;DHT22;7126;48.458;7.930;2023-11-21T05:17:38;10.40;99.90
14099;DHT22;7126;48.458;7.930;2023-11-21T05:20:07;10.50;99.90
14099;DHT22;7126;48.458;7.930;2023-11-21T05:22:35;10.50;99.90
14099;DHT22;7126;48.458;7.930;2023-11-21T05:25:01;10.50;99.90
14099;DHT22;7126;48.458;7.930;2023-11-21T05:27:29;10.50;99.90
14099;DHT22;7126;48.458;7.930;2023-11-21T05:29:55;10.50;99.90
14099;DHT22;7126;48.458;7.930;2023-11-21T05:32:20;10.50;99.90
14099;DHT22;7126;48.458;7.930;2023-11-21T05:34:46;10.50;99.90
14099;DHT22;7126;48.458;7.930;2023-11-21T05:37:11;10.50;99.90
14099;DHT22;7126;48.458;7.930;2023-11-21T05:39:37;10.50;99.90
14099;DHT22;7126;48.458;7.930;2023-11-21T05:42:03;10.50;99.90
14099;DHT22;7126;48.458;7.930;2023-11-21T05:44:29;10.40;99.90
14099;DHT22;7126;48.458;7.930;2023-11-21T05:46:54;10.40;99.90
14099;DHT22;7126;48.458;7.930;2023-11-21T05:49:20;10.40;99.90
14099;DHT22;7126;48.458;7.930;2023-11-21T05:51:47;10.40;99.90
14099;DHT22;7126;48.458;7.930;2023-11-21T05:54:13;10.40;99.90
14099;DHT22;7126;48.458;7.930;2023-11-21T05:56:38;10.40;99.90
14099;DHT22;7126;48.458;7.930;2023-11-21T05:59:04;10.40;99.90
14099;DHT22;7126;48.458;7.930;2023-11-21T06:01:57;10.40;99.90
14099;DHT22;7126;48.458;7.930;2023-11-21T06:04:24;10.40;99.90
14099;DHT22;7126;48.458;7.930;2023-11-21T06:06:51;10.40;99.90
14099;DHT22;7126;48.458;7.930;2023-11-21T06:09:16;10.40;99.90
14099;DHT22;7126;48.458;7.930;2023-11-21T06:11:42;10.40;99.90
14099;DHT22;7126;48.458;7.930;2023-11-21T06:14:07;10.50;99.90
14099;DHT22;7126;48.458;7.930;2023-11-21T06:16:34;10.40;99.90
14099;DHT22;7126;48.458;7.930;2023-11-21T06:19:00;10.50;99.90
14099;DHT22;7126;48.458;7.930;2023-11-21T06:21:26;10.40;99.90
14099;DHT22;7126;48.458;7.930;2023-11-21T06:23:52;10.40;99.90
14099;DHT22;7126;48.458;7.930;2023-11-21T06:26:18;10.40;99.90
14099;DHT22;7126;48.458;7.930;2023-11-21T06:28:44;10.40;99.90
14099;DHT22;7126;48.458;7.930;2023-11-21T06:31:09;10.40;99.90
14099;DHT22;7126;48.458;7.930;2023-11-21T06:33:36;10.40;99.90
14099;DHT22;7126;48.458;7.930;2023-11-21T06:36:02;10.40;99.90
14099;DHT22;7126;48.458;7.930;2023-11-21T06:38:28;10.40;99.90
14099;DHT22;7126;48.458;7.930;2023-11-21T06:40:55;10.40;99.90
14099;DHT22;7126;48.458;7.930;2023-11-21T06:43:22;10.40;99.90
14099;DHT22;7126;48.458;7.930;2023-11-21T06:45:47;10.40;99.90
14099;DHT22;7126;48.458;7.930;2023-11-21T06:48:13;10.40;99.90
14099;DHT22;7126;48.458;7.930;2023-11-21T06:50:39;10.40;99.90
14099;DHT22;7126;48.458;7.930;2023-11-21T06:53:04;10.40;99.90
14099;DHT22;7126;48.458;7.930;2023-11-21T06:55:32;10.40;99.90
14099;DHT22;7126;48.458;7.930;2023-11-21T06:57:58;10.40;99.90
14099;DHT22;7126;48.458;7.930;2023-11-21T07:00:25;10.40;99.90
14099;DHT22;7126;48.458;7.930;2023-11-21T07:02:53;10.40;99.90
14099;DHT22;7126;48.458;7.930;2023-11-21T07:05:20;10.40;99.90
14099;DHT22;7126;48.458;7.930;2023-11-21T07:07:47;10.40;99.90
14099;DHT22;7126;48.458;7.930;2023-11-21T07:10:13;10.40;99.90
14099;DHT22;7126;48.458;7.930;2023-11-21T07:12:39;10.40;99.90
14099;DHT22;7126;48.458;7.930;2023-11-21T07:15:06;10.40;99.90
14099;DHT22;7126;48.458;7.930;2023-11-21T07:17:37;10.40;99.90
14099;DHT22;7126;48.458;7.930;2023-11-21T07:20:03;10.40;99.90
14099;DHT22;7126;48.458;7.930;2023-11-21T07:22:29;10.40;99.90
14099;DHT22;7126;48.458;7.930;2023-11-21T07:24:55;10.40;99.90
14099;DHT22;7126;48.458;7.930;2023-11-21T07:27:22;10.50;99.90
14099;DHT22;7126;48.458;7.930;2023-11-21T07:29:47;10.50;99.90
14099;DHT22;7126;48.458;7.930;2023-11-21T07:32:14;10.50;99.90
14099;DHT22;7126;48.458;7.930;2023-11-21T07:34:40;10.50;99.90
14099;DHT22;7126;48.458;7.930;2023-11-21T07:37:07;10.50;99.90
14099;DHT22;7126;48.458;7.930;2023-11-21T07:39:32;10.50;99.90
14099;DHT22;7126;48.458;7.930;2023-11-21T07:41:58;10.50;99.90
14099;DHT22;7126;48.458;7.930;2023-11-21T07:44:23;10.50;99.90
14099;DHT22;7126;48.458;7.930;2023-11-21T07:46:49;10.60;99.90
14099;DHT22;7126;48.458;7.930;2023-11-21T07:49:17;10.50;99.90
14099;DHT22;7126;48.458;7.930;2023-11-21T07:51:45;10.50;99.90
14099;DHT22;7126;48.458;7.930;2023-11-21T07:54:11;10.60;99.90
14099;DHT22;7126;48.458;7.930;2023-11-21T07:56:37;10.50;99.90
14099;DHT22;7126;48.458;7.930;2023-11-21T07:59:02;10.50;99.90
14099;DHT22;7126;48.458;7.930;2023-11-21T08:01:28;10.50;99.90
14099;DHT22;7126;48.458;7.930;2023-11-21T08:03:54;10.50;99.90
14099;DHT22;7126;48.458;7.930;2023-11-21T08:06:23;10.50;99.90
14099;DHT22;7126;48.458;7.930;2023-11-21T08:08:49;10.50;99.90
14099;DHT22;7126;48.458;7.930;2023-11-21T08:11:14;10.50;99.90
14099;DHT22;7126;48.458;7.930;2023-11-21T08:13:40;10.50;99.90
14099;DHT22;7126;48.458;7.930;2023-11-21T08:16:06;10.50;99.90
14099;DHT22;7126;48.458;7.930;2023-11-21T08:18:32;10.50;99.90
14099;DHT22;7126;48.458;7.930;2023-11-21T08:20:59;10.50;99.90
14099;DHT22;7126;48.458;7.930;2023-11-21T08:23:24;10.50;99.90
14099;DHT22;7126;48.458;7.930;2023-11-21T08:25:53;10.50;99.90
14099;DHT22;7126;48.458;7.930;2023-11-21T08:28:19;10.50;99.90
14099;DHT22;7126;48.458;7.930;2023-11-21T08:30:47;10.50;99.90
14099;DHT22;7126;48.458;7.930;2023-11-21T08:33:13;10.50;99.90
14099;DHT22;7126;48.458;7.930;2023-11-21T08:35:38;10.60;99.90
14099;DHT22;7126;48.458;7.930;2023-11-21T08:38:04;10.60;99.90
14099;DHT22;7126;48.458;7.930;2023-11-21T08:40:30;10.60;99.90
14099;DHT22;7126;48.458;7.930;2023-11-21T08:42:56;10.60;99.90
14099;DHT22;7126;48.458;7.930;2023-11-21T08:45:24;10.50;99.90
14099;DHT22;7126;48.458;7.930;2023-11-21T08:47:50;10.50;99.90
14099;DHT22;7126;48.458;7.930;2023-11-21T08:50:16;10.50;99.90
14099;DHT22;7126;48.458;7.930;2023-11-21T08:52:42;10.40;99.90
14099;DHT22;7126;48.458;7.930;2023-11-21T08:55:08;10.50;99.90
14099;DHT22;7126;48.458;7.930;2023-11-21T08:57:35;10.50;99.90
14099;DHT22;7126;48.458;7.930;2023-11-21T09:00:02;10.50;99.90
14099;DHT22;7126;48.458;7.930;2023-11-21T09:02:28;10.40;99.90
14099;DHT22;7126;48.458;7.930;2023-11-21T09:04:53;10.50;99.90
14099;DHT22;7126;48.458;7.930;2023-11-21T09:07:19;10.50;99.90
14099;DHT22;7126;48.458;7.930;2023-11-21T09:09:48;10.50;99.90
14099;DHT22;7126;48.458;7.930;2023-11-21T09:12:14;10.60;99.90
14099;DHT22;7126;48.458;7.930;2023-11-21T09:14:40;10.60;99.90
14099;DHT22;7126;48.458;7.930;2023-11-21T09:17:06;10.60;99.90
14099;DHT22;7126;48.458;7.930;2023-11-21T09:19:39;10.60;99.90
14099;DHT22;7126;48.458;7.930;2023-11-21T09:22:05;10.60;99.90
14099;DHT22;7126;48.458;7.930;2023-11-21T09:24:34;10.60;99.90
14099;DHT22;7126;48.458;7.930;2023-11-21T09:27:00;10.60;99.90
14099;DHT22;7126;48.458;7.930;2023-11-21T09:29:26;10.60;99.90
14099;DHT22;7126;48.458;7.930;2023-11-21T09:31:52;10.60;99.90
14099;DHT22;7126;48.458;7.930;2023-11-21T09:34:17;10.60;99.90
14099;DHT22;7126;48.458;7.930;2023-11-21T09:36:47;10.60;99.90
14099;DHT22;7126;48.458;7.930;2023-11-21T09:39:13;10.60;99.90
14099;DHT22;7126;48.458;7.930;2023-11-21T09:41:50;10.60;99.90
14099;DHT22;7126;48.458;7.930;2023-11-21T09:44:24;10.50;99.90
14099;DHT22;7126;48.458;7.930;2023-11-21T09:46:52;10.50;99.90
14099;DHT22;7126;48.458;7.930;2023-11-21T09:49:23;10.40;99.90
14099;DHT22;7126;48.458;7.930;2023-11-21T09:51:52;10.30;99.90
14099;DHT22;7126;48.458;7.930;2023-11-21T09:54:19;10.40;99.90
14099;DHT22;7126;48.458;7.930;2023-11-21T09:56:46;10.50;99.90
14099;DHT22;7126;48.458;7.930;2023-11-21T09:59:14;10.40;99.90
14099;DHT22;7126;48.458;7.930;2023-11-21T10:01:41;10.40;99.90
14099;DHT22;7126;48.458;7.930;2023-11-21T10:04:08;10.50;99.90
14099;DHT22;7126;48.458;7.930;2023-11-21T10:06:39;10.50;99.90
14099;DHT22;7126;48.458;7.930;2023-11-21T10:09:09;10.60;99.90
14099;DHT22;7126;48.458;7.930;2023-11-21T10:11:43;10.60;99.90
14099;DHT22;7126;48.458;7.930;2023-11-21T10:14:12;10.60;99.90
14099;DHT22;7126;48.458;7.930;2023-11-21T10:16:40;10.60;99.90
14099;DHT22;7126;48.458;7.930;2023-11-21T10:19:06;10.60;99.90
14099;DHT22;7126;48.458;7.930;2023-11-21T10:21:35;10.60;99.90
14099;DHT22;7126;48.458;7.930;2023-11-21T10:24:00;10.70;99.90
14099;DHT22;7126;48.458;7.930;2023-11-21T10:26:28;10.70;99.90
14099;DHT22;7126;48.458;7.930;2023-11-21T10:29:01;10.60;99.90
14099;DHT22;7126;48.458;7.930;2023-11-21T10:31:30;10.60;99.90
14099;DHT22;7126;48.458;7.930;2023-11-21T10:34:13;10.50;99.90
14099;DHT22;7126;48.458;7.930;2023-11-21T10:36:39;10.60;99.90
14099;DHT22;7126;48.458;7.930;2023-11-21T10:39:04;10.60;99.90
14099;DHT22;7126;48.458;7.930;2023-11-21T10:41:30;10.60;99.90
14099;DHT22;7126;48.458;7.930;2023-11-21T10:43:55;10.60;99.90
14099;DHT22;7126;48.458;7.930;2023-11-21T10:46:21;10.70;99.90
14099;DHT22;7126;48.458;7.930;2023-11-21T10:48:53;10.70;99.90
14099;DHT22;7126;48.458;7.930;2023-11-21T10:51:20;10.70;99.90
14099;DHT22;7126;48.458;7.930;2023-11-21T10:53:46;10.70;99.90
14099;DHT22;7126;48.458;7.930;2023-11-21T10:56:14;10.80;99.90
14099;DHT22;7126;48.458;7.930;2023-11-21T10:58:43;10.80;99.90
14099;DHT22;7126;48.458;7.930;2023-11-21T11:01:09;10.80;99.90
14099;DHT22;7126;48.458;7.930;2023-11-21T11:03:37;10.80;99.90
14099;DHT22;7126;48.458;7.930;2023-11-21T11:06:05;10.90;99.90
14099;DHT22;7126;48.458;7.930;2023-11-21T11:08:34;10.90;99.90
14099;DHT22;7126;48.458;7.930;2023-11-21T11:11:00;10.90;99.90
14099;DHT22;7126;48.458;7.930;2023-11-21T11:13:26;10.90;99.90
14099;DHT22;7126;48.458;7.930;2023-11-21T11:15:57;11.00;99.90
14099;DHT22;7126;48.458;7.930;2023-11-21T11:18:25;11.10;99.90
14099;DHT22;7126;48.458;7.930;2023-11-21T11:20:51;11.10;99.90
14099;DHT22;7126;48.458;7.930;2023-11-21T11:31:37;11.40;99.90
14099;DHT22;7126;48.458;7.930;2023-11-21T11:34:08;11.50;99.90
14099;DHT22;7126;48.458;7.930;2023-11-21T11:37:00;11.50;99.90
14099;DHT22;7126;48.458;7.930;2023-11-21T11:39:35;11.50;99.90
14099;DHT22;7126;48.458;7.930;2023-11-21T11:42:03;11.50;99.90
14099;DHT22;7126;48.458;7.930;2023-11-21T11:47:24;11.50;99.90
14099;DHT22;7126;48.458;7.930;2023-11-21T11:49:59;11.50;99.90
14099;DHT22;7126;48.458;7.930;2023-11-21T11:55:11;11.60;99.90
14099;DHT22;7126;48.458;7.930;2023-11-21T11:57:38;11.50;99.90
14099;DHT22;7126;48.458;7.930;2023-11-21T12:02:51;11.50;99.90
14099;DHT22;7126;48.458;7.930;2023-11-21T12:05:18;11.50;99.90
14099;DHT22;7126;48.458;7.930;2023-11-21T12:07:52;11.50;99.90
14099;DHT22;7126;48.458;7.930;2023-11-21T12:10:24;11.50;99.90
14099;DHT22;7126;48.458;7.930;2023-11-21T12:12:58;11.50;99.90
14099;DHT22;7126;48.458;7.930;2023-11-21T12:15:24;11.50;99.90
14099;DHT22;7126;48.458;7.930;2023-11-21T12:17:51;11.50;99.90
14099;DHT22;7126;48.458;7.930;2023-11-21T12:20:21;11.50;99.90
14099;DHT22;7126;48.458;7.930;2023-11-21T12:22:58;11.50;99.90
14099;DHT22;7126;48.458;7.930;2023-11-21T12:25:29;11.50;99.90
14099;DHT22;7126;48.458;7.930;2023-11-21T12:27:57;11.50;99.90
14099;DHT22;7126;48.458;7.930;2023-11-21T12:30:26;11.50;99.90
14099;DHT22;7126;48.458;7.930;2023-11-21T12:32:55;11.60;99.90
14099;DHT22;7126;48.458;7.930;2023-11-21T12:35:29;11.60;99.90
14099;DHT22;7126;48.458;7.930;2023-11-21T12:37:56;11.70;99.90
14099;DHT22;7126;48.458;7.930;2023-11-21T12:40:25;11.80;99.90
14099;DHT22;7126;48.458;7.930;2023-11-21T12:42:57;11.80;99.90
14099;DHT22;7126;48.458;7.930;2023-11-21T12:45:25;11.80;99.90
14099;DHT22;7126;48.458;7.930;2023-11-21T12:47:58;11.80;99.90
14099;DHT22;7126;48.458;7.930;2023-11-21T12:50:26;11.80;99.90
14099;DHT22;7126;48.458;7.930;2023-11-21T12:53:08;11.80;99.90
14099;DHT22;7126;48.458;7.930;2023-11-21T12:55:34;11.90;99.90
14099;DHT22;7126;48.458;7.930;2023-11-21T12:58:04;11.90;99.90
14099;DHT22;7126;48.458;7.930;2023-11-21T13:00:48;11.90;99.90
14099;DHT22;7126;48.458;7.930;2023-11-21T13:03:15;11.90;99.90
14099;DHT22;7126;48.458;7.930;2023-11-21T13:05:43;11.90;99.90
14099;DHT22;7126;48.458;7.930;2023-11-21T13:08:11;11.90;99.90
14099;DHT22;7126;48.458;7.930;2023-11-21T13:10:39;11.90;99.90
14099;DHT22;7126;48.458;7.930;2023-11-21T13:13:08;11.90;99.90
14099;DHT22;7126;48.458;7.930;2023-11-21T13:15:38;11.90;99.90
14099;DHT22;7126;48.458;7.930;2023-11-21T13:18:04;11.90;99.90
14099;DHT22;7126;48.458;7.930;2023-11-21T13:20:29;11.90;99.90
14099;DHT22;7126;48.458;7.930;2023-11-21T13:22:56;11.90;99.90
14099;DHT22;7126;48.458;7.930;2023-11-21T13:25:27;11.80;99.90
14099;DHT22;7126;48.458;7.930;2023-11-21T13:27:56;11.80;99.90
14099;DHT22;7126;48.458;7.930;2023-11-21T13:30:23;11.80;99.90
14099;DHT22;7126;48.458;7.930;2023-11-21T13:32:56;11.80;99.90
14099;DHT22;7126;48.458;7.930;2023-11-21T13:35:23;11.80;99.90
14099;DHT22;7126;48.458;7.930;2023-11-21T13:37:56;11.80;99.90
14099;DHT22;7126;48.458;7.930;2023-11-21T13:40:25;11.70;99.90
14099;DHT22;7126;48.458;7.930;2023-11-21T13:42:55;11.70;99.90
14099;DHT22;7126;48.458;7.930;2023-11-21T13:45:25;11.70;99.90
14099;DHT22;7126;48.458;7.930;2023-11-21T13:47:52;11.70;99.90
14099;DHT22;7126;48.458;7.930;2023-11-21T13:50:20;11.60;99.90
14099;DHT22;7126;48.458;7.930;2023-11-21T13:52:50;11.60;99.90
14099;DHT22;7126;48.458;7.930;2023-11-21T13:55:19;11.50;99.90
14099;DHT22;7126;48.458;7.930;2023-11-21T13:57:45;11.50;99.90
14099;DHT22;7126;48.458;7.930;2023-11-21T14:00:16;11.50;99.90
14099;DHT22;7126;48.458;7.930;2023-11-21T14:03:00;11.50;99.90
14099;DHT22;7126;48.458;7.930;2023-11-21T14:05:27;11.50;99.90
14099;DHT22;7126;48.458;7.930;2023-11-21T14:07:55;11.50;99.90
14099;DHT22;7126;48.458;7.930;2023-11-21T14:10:22;11.50;99.90
14099;DHT22;7126;48.458;7.930;2023-11-21T14:12:50;11.50;99.90
14099;DHT22;7126;48.458;7.930;2023-11-21T14:15:15;11.50;99.90
14099;DHT22;7126;48.458;7.930;2023-11-21T14:17:44;11.40;99.90
14099;DHT22;7126;48.458;7.930;2023-11-21T14:20:10;11.40;99.90
14099;DHT22;7126;48.458;7.930;2023-11-21T14:22:41;11.40;99.90
14099;DHT22;7126;48.458;7.930;2023-11-21T14:25:07;11.40;99.90
14099;DHT22;7126;48.458;7.930;2023-11-21T14:27:33;11.40;99.90
14099;DHT22;7126;48.458;7.930;2023-11-21T14:29:58;11.40;99.90
14099;DHT22;7126;48.458;7.930;2023-11-21T14:32:24;11.40;99.90
14099;DHT22;7126;48.458;7.930;2023-11-21T14:34:51;11.30;99.90
14099;DHT22;7126;48.458;7.930;2023-11-21T14:37:17;11.30;99.90
14099;DHT22;7126;48.458;7.930;2023-11-21T14:39:43;11.30;99.90
14099;DHT22;7126;48.458;7.930;2023-11-21T14:42:13;11.30;99.90
14099;DHT22;7126;48.458;7.930;2023-11-21T14:44:40;11.30;99.90
14099;DHT22;7126;48.458;7.930;2023-11-21T14:47:06;11.30;99.90
14099;DHT22;7126;48.458;7.930;2023-11-21T14:49:41;11.20;99.90
14099;DHT22;7126;48.458;7.930;2023-11-21T14:52:21;11.20;99.90
14099;DHT22;7126;48.458;7.930;2023-11-21T14:55:09;11.20;99.90
14099;DHT22;7126;48.458;7.930;2023-11-21T14:57:53;11.20;99.90
14099;DHT22;7126;48.458;7.930;2023-11-21T15:00:20;11.20;99.90
14099;DHT22;7126;48.458;7.930;2023-11-21T15:03:02;11.20;99.90
14099;DHT22;7126;48.458;7.930;2023-11-21T15:05:28;11.20;99.90
14099;DHT22;7126;48.458;7.930;2023-11-21T15:07:54;11.20;99.90
14099;DHT22;7126;48.458;7.930;2023-11-21T15:10:23;11.20;99.90
14099;DHT22;7126;48.458;7.930;2023-11-21T15:13:03;11.20;99.90
14099;DHT22;7126;48.458;7.930;2023-11-21T15:15:29;11.10;99.90
14099;DHT22;7126;48.458;7.930;2023-11-21T15:17:56;11.10;99.90
14099;DHT22;7126;48.458;7.930;2023-11-21T15:20:22;11.10;99.90
14099;DHT22;7126;48.458;7.930;2023-11-21T15:22:48;11.10;99.90
14099;DHT22;7126;48.458;7.930;2023-11-21T15:25:13;11.10;99.90
14099;DHT22;7126;48.458;7.930;2023-11-21T15:27:39;11.10;99.90
14099;DHT22;7126;48.458;7.930;2023-11-21T15:30:07;11.10;99.90
14099;DHT22;7126;48.458;7.930;2023-11-21T15:32:32;11.10;99.90
14099;DHT22;7126;48.458;7.930;2023-11-21T15:34:58;11.00;99.90
14099;DHT22;7126;48.458;7.930;2023-11-21T15:37:23;11.10;99.90
14099;DHT22;7126;48.458;7.930;2023-11-21T15:39:51;11.10;99.90
14099;DHT22;7126;48.458;7.930;2023-11-21T15:42:17;11.10;99.90
14099;DHT22;7126;48.458;7.930;2023-11-21T15:44:43;11.10;99.90
14099;DHT22;7126;48.458;7.930;2023-11-21T15:47:08;11.10;99.90
14099;DHT22;7126;48.458;7.930;2023-11-21T15:49:34;11.10;99.90
14099;DHT22;7126;48.458;7.930;2023-11-21T15:52:02;11.10;99.90
14099;DHT22;7126;48.458;7.930;2023-11-21T15:54:29;11.10;99.90
14099;DHT22;7126;48.458;7.930;2023-11-21T15:56:56;11.10;99.90
14099;DHT22;7126;48.458;7.930;2023-11-21T15:59:26;11.10;99.90
14099;DHT22;7126;48.458;7.930;2023-11-21T16:01:57;11.00;99.90
14099;DHT22;7126;48.458;7.930;2023-11-21T16:04:22;11.00;99.90